createdAt,value
2018-02-19T00:00:06.939Z,3.01
2018-02-19T00:00:47.363Z,3.02
2018-02-19T00:01:27.973Z,2.94
2018-02-19T00:02:08.663Z,3.07
2018-02-19T00:02:49.276Z,3.16
2018-02-19T00:03:29.662Z,3.2
2018-02-19T00:04:09.974Z,3.13
2018-02-19T00:04:50.449Z,3.22
2018-02-19T00:05:30.833Z,3.26
2018-02-19T00:06:11.630Z,3.28
2018-02-19T00:06:52.678Z,3.3
2018-02-19T00:07:33.030Z,3.23
2018-02-19T00:08:14.335Z,3.15
2018-02-19T00:08:55.190Z,3.2
2018-02-19T00:09:35.151Z,3.19
2018-02-19T00:10:15.787Z,3.02
2018-02-19T00:10:56.202Z,3.1
2018-02-19T00:11:36.762Z,3.15
2018-02-19T00:12:17.294Z,3.08
2018-02-19T00:12:57.734Z,3.15
2018-02-19T00:13:38.147Z,3.08
2018-02-19T00:14:18.434Z,3.08
2018-02-19T00:14:58.954Z,3.02
2018-02-19T00:15:39.296Z,2.95
2018-02-19T00:16:19.775Z,2.89
2018-02-19T00:17:00.184Z,2.98
2018-02-19T00:17:41.016Z,2.83
2018-02-19T00:18:21.227Z,2.94
2018-02-19T00:19:01.680Z,2.84
2018-02-19T00:19:42.246Z,2.79
2018-02-19T00:20:23.377Z,2.73
2018-02-19T00:21:03.956Z,2.66
2018-02-19T00:21:44.632Z,2.65
2018-02-19T00:22:25.047Z,2.48
2018-02-19T00:23:05.354Z,2.36
2018-02-19T00:23:46.055Z,2.4
2018-02-19T00:24:26.478Z,2.37
2018-02-19T00:25:06.819Z,2.4
2018-02-19T00:25:47.428Z,2.38
2018-02-19T00:26:27.810Z,2.37
2018-02-19T00:27:08.263Z,2.47
2018-02-19T00:27:48.709Z,2.51
2018-02-19T00:28:29.018Z,2.55
2018-02-19T00:29:09.539Z,2.59
2018-02-19T00:29:49.957Z,2.59
2018-02-19T00:30:30.442Z,2.51
2018-02-19T00:31:10.968Z,2.56
2018-02-19T00:31:51.420Z,2.38
2018-02-19T00:32:31.861Z,2.4
2018-02-19T00:33:12.317Z,2.4
2018-02-19T00:33:52.762Z,2.3
2018-02-19T00:34:33.236Z,2.32
2018-02-19T00:35:14.186Z,2.26
2018-02-19T00:35:54.677Z,2.37
2018-02-19T00:36:35.067Z,2.41
2018-02-19T00:37:15.436Z,2.3
2018-02-19T00:37:56.877Z,2.38
2018-02-19T00:38:36.529Z,2.38
2018-02-19T00:39:16.888Z,2.37
2018-02-19T00:39:57.576Z,2.4
2018-02-19T00:40:37.977Z,2.56
2018-02-19T00:41:18.741Z,2.56
2018-02-19T00:41:59.070Z,2.51
2018-02-19T00:42:40.347Z,2.53
2018-02-19T00:43:20.861Z,2.58
2018-02-19T00:44:01.299Z,2.65
2018-02-19T00:44:42.050Z,2.73
2018-02-19T00:45:22.672Z,2.68
2018-02-19T00:46:03.020Z,2.74
2018-02-19T00:46:43.662Z,2.68
2018-02-19T00:47:25.526Z,2.83
2018-02-19T00:48:05.827Z,2.84
2018-02-19T00:48:46.273Z,3.07
2018-02-19T00:49:26.932Z,3.05
2018-02-19T00:50:07.357Z,3.08
2018-02-19T00:50:48.215Z,3.16
2018-02-19T00:51:28.971Z,3.05
2018-02-19T00:52:09.717Z,2.97
2018-02-19T00:52:50.330Z,2.9
2018-02-19T00:53:30.809Z,2.84
2018-02-19T00:54:11.471Z,2.95
2018-02-19T00:54:51.852Z,2.84
2018-02-19T00:55:32.398Z,2.84
2018-02-19T00:56:13.006Z,2.63
2018-02-19T00:56:53.492Z,2.69
2018-02-19T00:57:33.913Z,2.68
2018-02-19T00:58:14.328Z,2.71
2018-02-19T00:58:55.052Z,2.71
2018-02-19T00:59:35.506Z,2.73
2018-02-19T01:00:16.057Z,2.74
2018-02-19T01:00:56.628Z,2.74
2018-02-19T01:01:36.830Z,2.8
2018-02-19T01:02:17.351Z,2.61
2018-02-19T01:02:57.693Z,2.62
2018-02-19T01:03:38.376Z,2.45
2018-02-19T01:04:19.150Z,2.38
2018-02-19T01:04:59.738Z,2.4
2018-02-19T01:05:40.108Z,2.33
2018-02-19T01:06:20.682Z,2.23
2018-02-19T01:07:02.324Z,2.09
2018-02-19T01:07:44.523Z,2.02
2018-02-19T01:08:25.151Z,1.89
2018-02-19T01:09:06.002Z,1.79
2018-02-19T01:09:47.212Z,1.83
2018-02-19T01:10:27.588Z,1.86
2018-02-19T01:11:08.426Z,1.83
2018-02-19T01:11:49.319Z,1.7
2018-02-19T01:12:30.624Z,1.56
2018-02-19T01:13:11.152Z,1.52
2018-02-19T01:13:52.275Z,1.61
2018-02-19T01:14:33.178Z,1.67
2018-02-19T01:15:13.303Z,1.64
2018-02-19T01:15:54.642Z,1.65
2018-02-19T01:16:35.225Z,1.71
2018-02-19T01:17:15.490Z,1.71
2018-02-19T01:17:56.271Z,1.72
2018-02-19T01:18:36.493Z,1.72
2018-02-19T01:19:17.071Z,1.82
2018-02-19T01:19:57.425Z,1.93
2018-02-19T01:20:38.499Z,1.85
2018-02-19T01:21:20.845Z,1.83
2018-02-19T01:22:01.804Z,1.86
2018-02-19T01:22:42.136Z,1.83
2018-02-19T01:23:23.804Z,1.93
2018-02-19T01:24:03.964Z,1.92
2018-02-19T01:24:44.723Z,1.93
2018-02-19T01:25:25.358Z,2.09
2018-02-19T01:26:05.786Z,2.09
2018-02-19T01:26:47.013Z,2.04
2018-02-19T01:27:27.561Z,2.08
2018-02-19T01:28:08.145Z,2.05
2018-02-19T01:28:48.688Z,2.05
2018-02-19T01:29:29.337Z,2.05
2018-02-19T01:30:09.837Z,2.09
2018-02-19T01:30:55.032Z,2.04
2018-02-19T01:31:35.641Z,2.14
2018-02-19T01:32:16.253Z,2.02
2018-02-19T01:32:57.150Z,2.12
2018-02-19T01:33:37.637Z,2.2
2018-02-19T01:34:18.165Z,2.25
2018-02-19T01:34:58.809Z,2.43
2018-02-19T01:35:39.053Z,2.41
2018-02-19T01:36:20.302Z,2.38
2018-02-19T01:37:00.611Z,2.43
2018-02-19T01:37:41.295Z,2.51
2018-02-19T01:38:22.020Z,2.51
2018-02-19T01:39:02.803Z,2.44
2018-02-19T01:39:43.214Z,2.53
2018-02-19T01:40:23.861Z,2.41
2018-02-19T01:41:04.348Z,2.43
2018-02-19T01:41:45.259Z,2.33
2018-02-19T01:42:28.135Z,2.36
2018-02-19T01:43:08.766Z,2.33
2018-02-19T01:43:51.714Z,2.33
2018-02-19T01:44:32.044Z,2.26
2018-02-19T01:45:12.286Z,2.37
2018-02-19T01:45:52.958Z,2.4
2018-02-19T01:46:33.429Z,2.33
2018-02-19T01:47:13.736Z,2.37
2018-02-19T01:47:54.320Z,2.38
2018-02-19T01:48:35.826Z,2.37
2018-02-19T01:49:16.146Z,2.53
2018-02-19T01:49:57.049Z,2.45
2018-02-19T01:50:37.626Z,2.56
2018-02-19T01:51:18.423Z,2.51
2018-02-19T01:51:58.829Z,2.48
2018-02-19T01:52:44.180Z,2.56
2018-02-19T01:53:24.678Z,2.48
2018-02-19T01:54:05.655Z,2.61
2018-02-19T01:54:45.977Z,2.69
2018-02-19T01:55:26.942Z,2.55
2018-02-19T01:56:07.181Z,2.58
2018-02-19T01:56:47.844Z,2.68
2018-02-19T01:57:28.059Z,2.58
2018-02-19T01:58:08.527Z,2.48
2018-02-19T01:58:49.205Z,2.43
2018-02-19T01:59:30.159Z,2.37
2018-02-19T02:00:10.875Z,2.3
2018-02-19T02:00:51.535Z,2.33
2018-02-19T02:01:33.135Z,2.33
2018-02-19T02:02:13.457Z,2.33
2018-02-19T02:02:54.666Z,2.38
2018-02-19T02:03:34.802Z,2.38
2018-02-19T02:04:16.690Z,2.4
2018-02-19T02:04:58.175Z,2.33
2018-02-19T02:05:38.805Z,2.36
2018-02-19T02:06:20.228Z,2.44
2018-02-19T02:07:00.752Z,2.43
2018-02-19T02:07:41.722Z,2.4
2018-02-19T02:08:22.145Z,2.4
2018-02-19T02:09:03.023Z,2.36
2018-02-19T02:09:45.169Z,2.15
2018-02-19T02:10:27.526Z,1.89
2018-02-19T02:11:08.994Z,1.79
2018-02-19T02:11:51.914Z,1.81
2018-02-19T02:12:35.417Z,1.64
2018-02-19T02:13:21.201Z,1.57
2018-02-19T02:14:02.389Z,1.74
2018-02-19T02:14:44.880Z,1.71
2018-02-19T02:15:26.271Z,1.71
2018-02-19T02:16:07.295Z,1.81
2018-02-19T02:16:48.458Z,1.81
2018-02-19T02:17:30.193Z,1.71
2018-02-19T02:18:10.729Z,1.64
2018-02-19T02:18:52.731Z,1.65
2018-02-19T02:19:34.355Z,1.61
2018-02-19T02:20:15.674Z,1.67
2018-02-19T02:20:56.076Z,1.57
2018-02-19T02:21:37.031Z,1.67
2018-02-19T02:22:18.623Z,1.57
2018-02-19T02:22:59.016Z,1.53
2018-02-19T02:23:39.741Z,1.53
2018-02-19T02:24:20.288Z,1.49
2018-02-19T02:25:00.716Z,1.57
2018-02-19T02:25:42.061Z,1.47
2018-02-19T02:26:24.443Z,1.39
2018-02-19T02:27:05.577Z,1.52
2018-02-19T02:27:48.659Z,1.53
2018-02-19T02:28:29.537Z,1.61
2018-02-19T02:29:10.249Z,1.57
2018-02-19T02:29:51.220Z,1.49
2018-02-19T02:30:32.751Z,1.46
2018-02-19T02:31:13.960Z,1.46
2018-02-19T02:31:54.869Z,1.44
2018-02-19T02:32:35.458Z,1.34
2018-02-19T02:33:16.346Z,1.36
2018-02-19T02:33:56.896Z,1.32
2018-02-19T02:34:37.656Z,1.28
2018-02-19T02:35:20.578Z,1.31
2018-02-19T02:36:03.439Z,1.36
2018-02-19T02:36:45.400Z,1.46
2018-02-19T02:37:25.841Z,1.57
2018-02-19T02:38:07.037Z,1.67
2018-02-19T02:38:48.652Z,1.63
2018-02-19T02:39:29.163Z,1.61
2018-02-19T02:40:10.738Z,1.5
2018-02-19T02:40:54.598Z,1.63
2018-02-19T02:41:35.860Z,1.54
2018-02-19T02:42:17.080Z,1.56
2018-02-19T02:42:59.822Z,1.53
2018-02-19T02:43:43.699Z,1.63
2018-02-19T02:44:24.025Z,1.56
2018-02-19T02:45:06.323Z,1.53
2018-02-19T02:45:46.969Z,1.39
2018-02-19T02:46:27.948Z,1.38
2018-02-19T02:47:08.783Z,1.34
2018-02-19T02:47:55.069Z,1.24
2018-02-19T02:48:37.347Z,1.18
2018-02-19T02:49:17.436Z,1.16
2018-02-19T02:49:58.249Z,1.17
2018-02-19T02:50:40.889Z,1.06
2018-02-19T02:51:21.606Z,1.29
2018-02-19T02:52:03.085Z,1.24
2018-02-19T02:52:48.126Z,1.29
2018-02-19T02:53:30.427Z,1.21
2018-02-19T02:54:11.516Z,1.2
2018-02-19T02:54:53.741Z,1.2
2018-02-19T02:55:36.006Z,1.21
2018-02-19T02:56:16.351Z,1.21
2018-02-19T02:56:56.821Z,1.17
2018-02-19T02:57:37.316Z,1.26
2018-02-19T02:58:18.842Z,1.35
2018-02-19T02:59:00.768Z,1.32
2018-02-19T02:59:41.077Z,1.32
2018-02-19T03:00:23.871Z,1.28
2018-02-19T03:01:04.246Z,1.49
2018-02-19T03:01:45.302Z,1.49
2018-02-19T03:02:26.246Z,1.56
2018-02-19T03:03:06.866Z,1.57
2018-02-19T03:03:47.391Z,1.72
2018-02-19T03:04:27.856Z,1.65
2018-02-19T03:05:08.620Z,1.65
2018-02-19T03:05:50.244Z,1.72
2018-02-19T03:06:30.725Z,1.75
2018-02-19T03:07:12.345Z,1.7
2018-02-19T03:07:52.817Z,1.64
2018-02-19T03:08:33.349Z,1.64
2018-02-19T03:09:13.729Z,1.5
2018-02-19T03:09:57.073Z,1.56
2018-02-19T03:10:38.067Z,1.49
2018-02-19T03:11:18.929Z,1.43
2018-02-19T03:12:02.835Z,1.36
2018-02-19T03:12:45.592Z,1.31
2018-02-19T03:13:26.314Z,1.26
2018-02-19T03:17:26.114Z,1.54
2018-02-19T03:19:26.253Z,1.65
2018-02-19T03:20:12.559Z,1.65
2018-02-19T03:20:53.128Z,1.49
2018-02-19T03:21:34.687Z,1.43
2018-02-19T03:22:16.470Z,1.46
2018-02-19T03:22:57.267Z,1.42
2018-02-19T03:23:38.113Z,1.36
2018-02-19T03:24:18.207Z,1.35
2018-02-19T03:24:59.288Z,1.31
2018-02-19T03:25:39.116Z,1.39
2018-02-19T03:26:20.472Z,1.29
2018-02-19T03:27:02.308Z,1.21
2018-02-19T03:27:43.340Z,1.21
2018-02-19T03:28:25.210Z,1.24
2018-02-19T03:29:05.319Z,1.24
2018-02-19T03:29:46.445Z,1.24
2018-02-19T03:31:12.661Z,1.14
2018-02-19T03:31:55.761Z,1.26
2018-02-19T03:32:36.615Z,1.24
2018-02-19T03:33:17.482Z,1.21
2018-02-19T03:33:58.107Z,1.24
2018-02-19T03:34:39.111Z,1.2
2018-02-19T03:35:19.551Z,1.36
2018-02-19T03:36:00.571Z,1.44
2018-02-19T03:36:40.980Z,1.38
2018-02-19T03:37:22.066Z,1.52
2018-02-19T03:38:04.353Z,1.54
2018-02-19T03:38:44.901Z,1.54
2018-02-19T03:39:25.996Z,1.6
2018-02-19T03:40:06.344Z,1.54
2018-02-19T03:40:47.381Z,1.6
2018-02-19T03:41:27.654Z,1.6
2018-02-19T03:42:08.703Z,1.53
2018-02-19T03:42:50.582Z,1.49
2018-02-19T03:43:31.307Z,1.57
2018-02-19T03:44:11.412Z,1.53
2018-02-19T03:44:54.399Z,1.54
2018-02-19T03:45:35.884Z,1.47
2018-02-19T03:46:16.138Z,1.35
2018-02-19T03:46:57.692Z,1.43
2018-02-19T03:47:38.040Z,1.39
2018-02-19T03:48:18.966Z,1.39
2018-02-19T03:48:59.322Z,1.52
2018-02-19T03:49:40.172Z,1.54
2018-02-19T03:50:20.840Z,1.67
2018-02-19T03:51:02.535Z,1.64
2018-02-19T03:51:44.459Z,1.67
2018-02-19T03:52:25.728Z,1.7
2018-02-19T03:53:08.098Z,1.71
2018-02-19T03:53:50.200Z,1.7
2018-02-19T03:54:30.642Z,1.64
2018-02-19T03:55:11.197Z,1.82
2018-02-19T03:55:52.588Z,1.81
2018-02-19T03:56:33.773Z,1.83
2018-02-19T03:57:15.533Z,1.88
2018-02-19T03:57:54.775Z,1.82
2018-02-19T03:58:35.345Z,1.85
2018-02-19T03:59:15.858Z,2.02
2018-02-19T03:59:57.556Z,1.85
2018-02-19T04:00:38.150Z,1.95
2018-02-19T04:01:19.495Z,2.01
2018-02-19T04:02:00.325Z,1.9
2018-02-19T04:02:41.257Z,1.95
2018-02-19T04:03:21.803Z,1.92
2018-02-19T04:04:05.112Z,1.9
2018-02-19T04:45:43.644Z,1.64
2018-02-19T04:46:32.563Z,1.64
2018-02-19T04:47:21.059Z,1.61
2018-02-19T04:48:11.455Z,1.54
2018-02-19T04:49:00.020Z,1.68
2018-02-19T04:49:46.023Z,1.65
2018-02-19T04:51:36.099Z,1.74
2018-02-19T04:52:27.381Z,1.85
2018-02-19T04:53:16.368Z,1.88
2018-02-19T04:54:06.886Z,1.86
2018-02-19T04:54:56.209Z,1.92
2018-02-19T04:55:41.559Z,1.98
2018-02-19T04:56:22.665Z,1.95
2018-02-19T04:57:03.207Z,2
2018-02-19T04:57:46.056Z,2.01
2018-02-19T04:58:25.719Z,1.88
2018-02-19T04:59:06.175Z,1.88
2018-02-19T04:59:48.154Z,2
2018-02-19T05:00:29.589Z,2.05
2018-02-19T05:01:10.429Z,1.9
2018-02-19T05:01:56.968Z,1.98
2018-02-19T05:02:40.178Z,2.01
2018-02-19T05:03:24.470Z,2.08
2018-02-19T05:04:04.742Z,2.01
2018-02-19T05:04:45.653Z,2.15
2018-02-19T05:05:29.635Z,2.07
2018-02-19T05:06:12.445Z,2
2018-02-19T05:06:55.924Z,2.08
2018-02-19T05:07:40.254Z,2.09
2018-02-19T05:08:22.817Z,2.27
2018-02-19T05:09:03.406Z,2.3
2018-02-19T05:09:44.531Z,2.33
2018-02-19T05:10:27.395Z,2.32
2018-02-19T05:11:07.962Z,2.36
2018-02-19T05:11:47.101Z,2.36
2018-02-19T05:12:32.481Z,2.36
2018-02-19T05:13:14.394Z,2.3
2018-02-19T05:13:55.541Z,2.32
2018-02-19T05:14:39.462Z,2.22
2018-02-19T05:15:21.184Z,2.09
2018-02-19T05:16:05.814Z,2.08
2018-02-19T05:16:47.725Z,2.14
2018-02-19T05:17:27.796Z,2.07
2018-02-19T05:18:08.949Z,2.01
2018-02-19T05:18:51.911Z,2.02
2018-02-19T05:19:34.621Z,2.01
2018-02-19T05:20:16.075Z,1.89
2018-02-19T05:20:57.859Z,1.89
2018-02-19T05:21:44.600Z,1.82
2018-02-19T05:22:25.353Z,1.82
2018-02-19T05:23:07.411Z,1.82
2018-02-19T05:23:49.909Z,1.71
2018-02-19T05:24:31.803Z,1.71
2018-02-19T05:25:12.556Z,1.71
2018-02-19T05:25:53.831Z,1.72
2018-02-19T05:26:39.197Z,1.71
2018-02-19T05:27:20.384Z,1.72
2018-02-19T05:28:02.260Z,1.77
2018-02-19T05:28:50.224Z,1.83
2018-02-19T05:29:31.495Z,1.95
2018-02-19T05:30:12.467Z,1.92
2018-02-19T05:30:54.069Z,2
2018-02-19T05:31:36.247Z,1.95
2018-02-19T05:32:18.239Z,1.93
2018-02-19T05:32:59.830Z,1.95
2018-02-19T05:33:41.321Z,2.08
2018-02-19T05:34:21.829Z,2
2018-02-19T05:35:07.482Z,2
2018-02-19T05:35:51.821Z,2.01
2018-02-19T05:36:35.020Z,2.08
2018-02-19T05:37:17.257Z,2.11
2018-02-19T05:37:57.952Z,2.08
2018-02-19T05:38:40.486Z,2
2018-02-19T05:39:23.618Z,1.98
2018-02-19T05:40:03.992Z,2.04
2018-02-19T05:40:47.416Z,2.01
2018-02-19T05:41:37.976Z,2
2018-02-19T05:42:19.501Z,1.98
2018-02-19T05:43:01.885Z,2.05
2018-02-19T05:43:43.538Z,2.18
2018-02-19T05:44:29.225Z,2.25
2018-02-19T05:45:07.434Z,2.19
2018-02-19T05:45:48.272Z,2.27
2018-02-19T05:46:30.327Z,2.26
2018-02-19T05:47:11.686Z,2.25
2018-02-19T05:47:53.637Z,2.18
2018-02-19T05:48:36.741Z,2.32
2018-02-19T05:49:17.245Z,2.19
2018-02-19T05:49:58.717Z,2.09
2018-02-19T05:51:51.500Z,2.14
2018-02-19T05:52:44.135Z,2.11
2018-02-19T05:53:36.981Z,2.12
2018-02-19T05:54:29.290Z,2.23
2018-02-19T05:55:21.398Z,2.29
2018-02-19T05:56:15.261Z,2.26
2018-02-19T05:57:07.565Z,2.2
2018-02-19T05:57:59.642Z,2.26
2018-02-19T05:58:51.762Z,2.33
2018-02-19T05:59:45.094Z,2.32
2018-02-19T06:00:37.950Z,2.41
2018-02-19T06:01:30.766Z,2.4
2018-02-19T06:02:23.446Z,2.32
2018-02-19T06:03:15.500Z,2.19
2018-02-19T06:04:09.443Z,2.25
2018-02-19T06:05:01.752Z,2.18
2018-02-19T06:05:55.225Z,2.15
2018-02-19T06:06:48.094Z,2.04
2018-02-19T06:07:40.723Z,2.19
2018-02-19T06:08:32.821Z,2.15
2018-02-19T06:09:25.422Z,2.23
2018-02-19T06:10:17.858Z,2.32
2018-02-19T06:11:10.214Z,2.33
2018-02-19T06:12:03.007Z,2.25
2018-02-19T06:12:55.162Z,2.23
2018-02-19T06:13:47.866Z,2.2
2018-02-19T06:14:40.459Z,2.23
2018-02-19T06:15:33.986Z,2.2
2018-02-19T06:16:26.502Z,2.2
2018-02-19T06:17:18.781Z,2.29
2018-02-19T06:18:13.334Z,2.26
2018-02-19T06:19:07.153Z,2.32
2018-02-19T06:19:58.772Z,2.29
2018-02-19T06:20:52.894Z,2.44
2018-02-19T06:21:45.206Z,2.33
2018-02-19T06:22:37.811Z,2.45
2018-02-19T06:23:31.694Z,2.47
2018-02-19T06:24:24.341Z,2.65
2018-02-19T06:25:16.834Z,2.66
2018-02-19T06:26:09.556Z,2.69
2018-02-19T06:27:02.165Z,2.43
2018-02-19T06:27:54.695Z,2.44
2018-02-19T06:28:46.827Z,2.36
2018-02-19T06:29:40.321Z,2.41
2018-02-19T06:31:41.965Z,2.18
2018-02-19T06:32:34.287Z,2.05
2018-02-19T06:33:28.232Z,2.05
2018-02-19T06:34:20.664Z,2.01
2018-02-19T06:35:13.626Z,2
2018-02-19T06:36:06.011Z,2.12
2018-02-19T06:36:58.642Z,2.2
2018-02-19T06:37:50.262Z,2.19
2018-02-19T06:38:42.385Z,2.32
2018-02-19T06:39:35.816Z,2.4
2018-02-19T06:40:28.121Z,2.38
2018-02-19T06:41:20.468Z,2.37
2018-02-19T06:42:12.928Z,2.4
2018-02-19T06:43:05.242Z,2.53
2018-02-19T06:43:58.840Z,2.59
2018-02-19T06:44:51.493Z,2.79
2018-02-19T06:45:43.959Z,2.79
2018-02-19T06:46:36.187Z,2.8
2018-02-19T06:47:30.213Z,2.79
2018-02-19T06:48:22.905Z,2.92
2018-02-19T06:49:16.117Z,2.83
2018-02-19T06:50:08.610Z,2.89
2018-02-19T06:51:01.633Z,2.77
2018-02-19T06:52:00.197Z,2.94
2018-02-19T06:52:55.209Z,3.02
2018-02-19T06:53:52.401Z,2.86
2018-02-19T06:54:46.372Z,2.92
2018-02-19T06:55:39.291Z,2.87
2018-02-19T06:56:32.364Z,2.89
2018-02-19T07:00:15.149Z,2.89
2018-02-19T07:01:07.260Z,2.81
2018-02-19T07:01:59.425Z,2.68
2018-02-19T07:02:52.100Z,2.63
2018-02-19T07:03:49.536Z,2.48
2018-02-19T07:04:46.671Z,2.59
2018-02-19T07:05:50.830Z,2.63
2018-02-19T07:06:52.707Z,2.65
2018-02-19T07:13:03.203Z,2.68
2018-02-19T07:14:37.458Z,2.68
2018-02-19T07:19:53.883Z,2.74
2018-02-19T07:20:47.310Z,2.74
2018-02-19T07:22:40.505Z,2.79
2018-02-19T07:28:53.201Z,2.71
2018-02-19T07:30:49.489Z,2.89
2018-02-19T07:38:06.311Z,3.08
2018-02-19T07:38:56.331Z,3.2
2018-02-19T07:39:39.961Z,3.34
2018-02-19T07:40:20.492Z,3.33
2018-02-19T07:42:13.514Z,3.22
2018-02-19T07:43:15.522Z,3.25
2018-02-19T07:43:55.799Z,3.08
2018-02-19T07:44:40.109Z,3.2
2018-02-19T07:45:26.341Z,3.34
2018-02-19T07:46:09.041Z,3.23
2018-02-19T07:46:50.621Z,3.26
2018-02-19T07:47:30.857Z,3.28
2018-02-19T07:48:11.293Z,3.25
2018-02-19T07:48:54.330Z,3.37
2018-02-19T07:49:35.641Z,3.31
2018-02-19T07:50:15.282Z,3.5
2018-02-19T07:50:55.747Z,3.44
2018-02-19T07:52:52.091Z,3.6
2018-02-19T07:57:27.999Z,3.68
2018-02-19T08:05:04.941Z,3.72
2018-02-19T08:08:28.450Z,3.86
2018-02-19T08:09:30.307Z,3.88
2018-02-19T08:10:39.458Z,3.92
2018-02-19T08:15:24.239Z,3.57
2018-02-19T08:20:41.198Z,3.59
2018-02-19T08:25:49.365Z,3.71
2018-02-19T08:26:43.651Z,3.82
2018-02-19T08:27:38.089Z,3.84
2018-02-19T08:28:33.070Z,3.8
2018-02-19T08:29:27.232Z,3.63
2018-02-19T08:30:20.944Z,3.77
2018-02-19T08:31:14.391Z,3.7
2018-02-19T08:32:10.097Z,3.77
2018-02-19T08:33:03.019Z,3.81
2018-02-19T08:33:57.496Z,3.92
2018-02-19T08:34:51.062Z,3.95
2018-02-19T08:35:46.929Z,4
2018-02-19T08:36:41.819Z,3.9
2018-02-19T08:37:39.130Z,3.84
2018-02-19T08:38:32.958Z,3.63
2018-02-19T08:39:34.435Z,3.59
2018-02-19T08:40:29.298Z,3.59
2018-02-19T08:41:38.799Z,3.37
2018-02-19T08:45:41.317Z,3.8
2018-02-19T08:46:37.127Z,3.88
2018-02-19T08:47:41.246Z,3.86
2018-02-19T08:48:35.977Z,3.98
2018-02-19T08:49:29.620Z,3.95
2018-02-19T08:50:27.638Z,3.93
2018-02-19T08:51:34.031Z,4
2018-02-19T08:52:30.469Z,3.98
2018-02-19T08:53:34.256Z,3.99
2018-02-19T08:54:34.061Z,4.06
2018-02-19T08:55:28.423Z,4.08
2018-02-19T08:59:36.290Z,4.62
2018-02-19T09:00:29.606Z,4.49
2018-02-19T09:01:26.662Z,4.59
2018-02-19T09:02:23.529Z,4.53
2018-02-19T09:03:18.597Z,4.65
2018-02-19T09:04:21.039Z,4.53
2018-02-19T09:07:43.458Z,4.49
2018-02-19T09:08:28.112Z,4.5
2018-02-19T09:09:09.516Z,4.65
2018-02-19T09:09:51.394Z,4.61
2018-02-19T09:10:34.244Z,4.62
2018-02-19T09:11:14.968Z,4.65
2018-02-19T09:11:55.759Z,4.77
2018-02-19T09:12:36.638Z,4.77
2018-02-19T09:13:20.660Z,4.67
2018-02-19T09:14:01.397Z,4.68
2018-02-19T09:14:42.590Z,4.67
2018-02-19T09:15:23.509Z,4.87
2018-02-19T09:16:11.826Z,4.94
2018-02-19T09:18:38.490Z,5.44
2018-02-19T09:21:31.890Z,5.41
2018-02-19T09:22:12.360Z,5.45
2018-02-19T09:22:53.986Z,5.56
2018-02-19T09:23:35.993Z,5.62
2018-02-19T09:24:21.040Z,5.62
2018-02-19T09:24:59.989Z,5.52
2018-02-19T09:25:45.167Z,5.62
2018-02-19T09:26:35.977Z,5.62
2018-02-19T09:27:15.622Z,5.6
2018-02-19T09:30:24.578Z,5.29
2018-02-19T09:31:30.619Z,5.05
2018-02-19T09:35:32.690Z,4.99
2018-02-19T09:36:28.448Z,5.11
2018-02-19T09:37:25.408Z,5.26
2018-02-19T09:38:26.197Z,5.26
2018-02-19T09:39:24.170Z,5.23
2018-02-19T09:40:17.904Z,5.17
2018-02-19T09:41:13.509Z,5.14
2018-02-19T09:42:06.053Z,5.17
2018-02-19T09:43:14.220Z,5.15
2018-02-19T09:44:17.847Z,5.24
2018-02-19T09:45:12.809Z,5.2
2018-02-19T09:46:09.558Z,5.35
2018-02-19T09:47:03.432Z,5.41
2018-02-19T09:47:57.444Z,5.35
2018-02-19T09:48:51.102Z,5.52
2018-02-19T09:49:48.005Z,5.66
2018-02-19T09:50:41.824Z,5.66
2018-02-19T09:51:39.284Z,5.69
2018-02-19T09:52:34.039Z,5.65
2018-02-19T09:53:28.618Z,5.74
2018-02-19T09:54:27.806Z,5.75
2018-02-19T09:59:02.598Z,5.32
2018-02-19T10:01:24.170Z,5.17
2018-02-19T10:02:06.869Z,5.04
2018-02-19T10:02:49.200Z,5.04
2018-02-19T10:03:30.865Z,5.08
2018-02-19T10:45:29.188Z,5.01
2018-02-19T10:46:22.693Z,4.9
2018-02-19T10:47:20.106Z,4.94
2018-02-19T10:48:12.444Z,4.83
2018-02-19T10:49:07.503Z,4.75
2018-02-19T10:50:00.933Z,4.94
2018-02-19T10:50:54.914Z,5.11
2018-02-19T10:51:47.094Z,5.17
2018-02-19T10:52:41.317Z,5.12
2018-02-19T10:53:34.554Z,5.19
2018-02-19T10:54:31.372Z,5.32
2018-02-19T10:55:26.940Z,5.45
2018-02-19T10:56:24.370Z,5.83
2018-02-19T10:57:17.551Z,5.98
2018-02-19T10:58:12.533Z,6.02
2018-02-19T10:59:11.001Z,6.14
2018-02-19T11:00:06.095Z,6.19
2018-02-19T11:02:40.547Z,6.36
2018-02-19T11:03:20.772Z,6.4
2018-02-19T11:04:01.266Z,6.45
2018-02-19T11:04:42.059Z,6.54
2018-02-19T11:05:23.113Z,6.5
2018-02-19T11:06:03.664Z,6.55
2018-02-19T11:06:44.231Z,6.45
2018-02-19T11:07:24.997Z,6.45
2018-02-19T11:08:05.241Z,6.45
2018-02-19T11:08:45.686Z,6.5
2018-02-19T11:09:29.945Z,6.43
2018-02-19T11:10:17.825Z,6.45
2018-02-19T11:11:02.139Z,6.42
2018-02-19T11:11:48.031Z,6.46
2018-02-19T11:12:33.100Z,6.64
2018-02-19T11:13:17.226Z,6.73
2018-02-19T11:13:57.550Z,6.69
2018-02-19T11:14:38.003Z,6.9
2018-02-19T11:15:18.551Z,7
2018-02-19T11:15:59.201Z,7.12
2018-02-19T11:16:39.570Z,7.05
2018-02-19T11:17:20.015Z,7.07
2018-02-19T11:18:00.384Z,6.99
2018-02-19T11:18:40.947Z,7.15
2018-02-19T11:19:21.200Z,7.16
2018-02-19T11:20:01.673Z,7.21
2018-02-19T11:20:42.166Z,7.3
2018-02-19T11:21:22.678Z,7.5
2018-02-19T11:22:05.995Z,7.54
2018-02-19T11:24:15.300Z,7.55
2018-02-19T11:25:18.718Z,7.6
2018-02-19T11:26:12.554Z,7.54
2018-02-19T11:27:13.019Z,7.54
2018-02-19T11:28:21.772Z,7.58
2018-02-19T11:29:17.205Z,7.63
2018-02-19T11:30:11.374Z,7.71
2018-02-19T11:39:05.553Z,7.84
2018-02-19T11:40:04.509Z,7.94
2018-02-19T11:41:06.896Z,7.92
2018-02-19T11:43:01.727Z,8.32
2018-02-19T11:48:01.069Z,8.22
2018-02-19T11:49:02.393Z,8.27
2018-02-19T11:50:07.101Z,8.29
2018-02-19T11:51:07.361Z,8.34
2018-02-19T11:52:01.768Z,8.07
2018-02-19T11:52:54.429Z,8.07
2018-02-19T11:53:48.988Z,7.94
2018-02-19T11:54:44.579Z,7.95
2018-02-19T11:55:39.462Z,7.91
2018-02-19T11:56:32.272Z,7.99
2018-02-19T11:57:25.753Z,7.94
2018-02-19T11:58:18.711Z,7.96
2018-02-19T11:59:12.150Z,8.02
2018-02-19T12:00:08.386Z,8
2018-02-19T12:01:01.348Z,7.99
2018-02-19T12:01:58.176Z,7.89
2018-02-19T12:03:00.790Z,7.92
2018-02-19T12:04:14.636Z,8.1
2018-02-19T12:05:39.108Z,8.31
2018-02-19T12:08:11.605Z,8.49
2018-02-19T12:09:16.717Z,8.37
2018-02-19T12:10:14.251Z,8.52
2018-02-19T12:11:30.479Z,8.7
2018-02-19T12:12:30.364Z,8.83
2018-02-19T12:13:23.247Z,8.78
2018-02-19T12:14:18.634Z,8.91
2018-02-19T12:15:16.131Z,9.01
2018-02-19T12:16:14.349Z,9.2
2018-02-19T12:18:20.237Z,9.26
2018-02-19T12:19:19.920Z,9.26
2018-02-19T12:23:18.807Z,9.75
2018-02-19T12:26:00.391Z,10.11
2018-02-19T12:26:55.276Z,9.85
2018-02-19T12:27:50.229Z,9.77
2018-02-19T12:30:12.055Z,9.58
2018-02-19T12:31:05.625Z,9.63
2018-02-19T12:32:04.379Z,9.89
2018-02-19T12:34:13.829Z,9.74
2018-02-19T12:38:10.588Z,9.98
2018-02-19T12:38:53.824Z,9.98
2018-02-19T12:39:37.836Z,10.13
2018-02-19T12:40:19.784Z,10.22
2018-02-19T12:41:02.184Z,10.36
2018-02-19T12:41:45.770Z,10.36
2018-02-19T12:42:28.674Z,10.26
2018-02-19T12:48:05.382Z,10.26
2018-02-19T12:48:44.402Z,10.39
2018-02-19T12:49:31.173Z,10.36
2018-02-19T12:50:13.964Z,10.39
2018-02-19T12:50:57.804Z,10.46
2018-02-19T12:51:39.346Z,10.58
2018-02-19T12:52:20.819Z,10.58
2018-02-19T12:53:02.860Z,10.72
2018-02-19T12:53:49.208Z,10.7
2018-02-19T12:54:29.955Z,10.99
2018-02-19T12:55:10.176Z,10.93
2018-02-19T12:55:59.617Z,11.03
2018-02-19T12:56:49.106Z,11.09
2018-02-19T12:57:36.092Z,11.2
2018-02-19T12:58:18.111Z,11.17
2018-02-19T12:59:01.986Z,11.19
2018-02-19T13:00:32.906Z,11.12
2018-02-19T13:01:12.401Z,11.11
2018-02-19T13:01:55.242Z,10.95
2018-02-19T13:02:40.073Z,10.95
2018-02-19T13:03:23.669Z,10.91
2018-02-19T13:04:03.338Z,10.83
2018-02-19T13:04:49.805Z,10.78
2018-02-19T13:05:31.601Z,10.9
2018-02-19T13:06:11.936Z,10.87
2018-02-19T13:12:29.798Z,10.42
2018-02-19T13:13:12.642Z,10.29
2018-02-19T13:13:53.051Z,10.26
2018-02-19T13:14:33.493Z,10.2
2018-02-19T13:15:14.356Z,10.17
2018-02-19T13:15:56.147Z,10.24
2018-02-19T13:16:40.774Z,10.22
2018-02-19T13:17:21.435Z,10.25
2018-02-19T13:18:02.733Z,10.2
2018-02-19T13:18:42.973Z,10.14
2018-02-19T13:19:25.228Z,10.04
2018-02-19T13:20:06.580Z,9.95
2018-02-19T13:20:47.044Z,9.88
2018-02-19T13:21:27.463Z,9.95
2018-02-19T13:22:07.885Z,10.02
2018-02-19T13:22:48.481Z,9.98
2018-02-19T13:23:29.242Z,9.86
2018-02-19T13:24:09.753Z,9.68
2018-02-19T13:24:50.269Z,9.67
2018-02-19T13:25:30.633Z,9.63
2018-02-19T13:26:11.063Z,9.6
2018-02-19T13:26:51.783Z,9.31
2018-02-19T13:27:32.502Z,9.31
2018-02-19T13:28:12.759Z,9.31
2018-02-19T13:28:53.200Z,9.3
2018-02-19T13:29:33.644Z,9.32
2018-02-19T13:30:15.181Z,9.4
2018-02-19T13:30:55.205Z,9.55
2018-02-19T13:31:35.869Z,9.55
2018-02-19T13:32:17.064Z,9.52
2018-02-19T13:32:57.649Z,9.48
2018-02-19T13:33:38.144Z,9.6
2018-02-19T13:34:19.229Z,9.68
2018-02-19T13:35:01.140Z,9.63
2018-02-19T13:35:43.366Z,9.52
2018-02-19T13:36:23.628Z,9.45